Time;durP1;ratioP1;P1;durP2;ratioP2;P2;SDS_P1;SDS_P2;PMS_P1;PMS_P2;Temp;Humidity;BMP_temperature;BMP_pressure;BME280_temperature;BME280_humidity;BME280_pressure;Samples;Min_cycle;Max_cycle;Signal;HPM_P1;HPM_P2
2021/07/31 00:02:23;;;;;;;6.22;2.40;;;;;;;17.20;100.00;100307.38;6302959;28;20044;-79
2021/07/31 00:05:24;;;;;;;5.13;2.17;;;;;;;17.15;100.00;100295.47;6301906;28;20061;-78
2021/07/31 00:08:26;;;;;;;4.43;2.45;;;;;;;17.08;100.00;100295.19;6302680;28;20045;-78
2021/07/31 00:11:29;;;;;;;3.78;2.10;;;;;;;17.05;100.00;100292.78;6302437;28;20052;-79
2021/07/31 00:14:31;;;;;;;5.88;2.13;;;;;;;17.03;100.00;100285.94;6301798;28;20392;-78
2021/07/31 00:17:32;;;;;;;5.10;2.05;;;;;;;17.02;100.00;100286.91;6301646;28;20517;-79
2021/07/31 00:20:34;;;;;;;5.72;2.20;;;;;;;16.97;100.00;100277.53;6302388;28;20389;-79
2021/07/31 00:23:35;;;;;;;4.85;1.95;;;;;;;17.03;100.00;100272.66;6300588;28;20052;-78
2021/07/31 00:26:38;;;;;;;5.60;2.00;;;;;;;17.03;100.00;100276.16;6299702;28;20075;-79
2021/07/31 00:29:39;;;;;;;4.88;2.15;;;;;;;17.07;100.00;100279.38;6301644;28;20053;-78
2021/07/31 00:32:40;;;;;;;7.93;2.47;;;;;;;16.99;100.00;100275.59;6302343;28;20048;-78
2021/07/31 00:35:42;;;;;;;6.65;2.22;;;;;;;16.94;100.00;100276.94;6302524;28;20523;-78
2021/07/31 00:38:43;;;;;;;2.53;2.05;;;;;;;16.87;100.00;100284.63;6302208;28;20607;-79
2021/07/31 00:41:46;;;;;;;6.00;2.00;;;;;;;16.83;100.00;100280.56;6305411;28;20052;-79
2021/07/31 00:44:47;;;;;;;4.53;2.33;;;;;;;16.78;100.00;100276.63;6305180;28;20044;-77
2021/07/31 00:47:49;;;;;;;2.90;1.88;;;;;;;16.68;100.00;100280.03;6304662;28;20056;-78
2021/07/31 00:50:51;;;;;;;4.45;2.50;;;;;;;16.67;100.00;100272.22;6305263;28;20056;-79
2021/07/31 00:53:54;;;;;;;8.10;1.92;;;;;;;16.64;100.00;100275.13;6308705;28;20044;-78
2021/07/31 00:56:57;;;;;;;3.08;2.00;;;;;;;16.62;100.00;100269.97;6312015;28;20052;-79
2021/07/31 00:59:59;;;;;;;4.47;2.45;;;;;;;16.57;100.00;100273.97;6312332;28;20534;-79
2021/07/31 01:03:00;;;;;;;4.32;2.13;;;;;;;16.60;100.00;100271.91;6313619;28;20048;-79
2021/07/31 01:06:02;;;;;;;8.38;1.80;;;;;;;16.61;100.00;100262.97;6314427;28;20049;-78
2021/07/31 01:09:03;;;;;;;3.38;2.00;;;;;;;16.56;100.00;100267.81;6314648;28;20056;-79
2021/07/31 01:12:07;;;;;;;6.40;1.83;;;;;;;16.51;100.00;100267.38;6313270;28;20454;-77
2021/07/31 01:15:09;;;;;;;6.38;2.00;;;;;;;16.44;98.62;100271.53;6308144;28;20056;-78
2021/07/31 01:18:10;;;;;;;5.47;1.88;;;;;;;16.49;98.50;100266.69;6307637;28;20128;-79
2021/07/31 01:21:33;;;;;;;4.38;1.52;;;;;;;16.53;96.22;100252.16;6311666;28;20056;-78
2021/07/31 01:24:34;;;;;;;6.07;1.50;;;;;;;16.43;97.07;100257.41;6312877;28;20041;-79
2021/07/31 01:27:38;;;;;;;3.80;1.55;;;;;;;16.35;97.78;100254.63;6305899;28;20415;-78
2021/07/31 01:30:39;;;;;;;5.13;2.10;;;;;;;16.32;97.98;100269.94;6303550;28;20049;-78
2021/07/31 01:33:41;;;;;;;7.32;2.28;;;;;;;16.32;97.76;100264.63;6301298;28;20044;-77
2021/07/31 01:36:44;;;;;;;2.83;1.52;;;;;;;16.28;97.85;100257.91;6305095;28;20080;-78
2021/07/31 01:39:47;;;;;;;3.83;1.90;;;;;;;16.24;97.45;100263.47;6307075;28;20052;-76
2021/07/31 01:42:48;;;;;;;9.23;1.83;;;;;;;16.24;97.18;100258.16;6309051;28;20048;-78
2021/07/31 01:45:50;;;;;;;4.38;1.70;;;;;;;16.19;96.82;100257.72;6311964;28;20049;-79
2021/07/31 01:48:51;;;;;;;9.95;4.22;;;;;;;16.15;96.59;100261.59;6310915;28;20056;-79
2021/07/31 01:51:54;;;;;;;4.82;1.88;;;;;;;16.15;95.85;100252.78;6311045;28;20055;-78
2021/07/31 01:54:55;;;;;;;3.50;1.58;;;;;;;16.16;95.77;100255.31;6313735;28;20060;-78
2021/07/31 01:57:56;;;;;;;10.35;2.20;;;;;;;16.18;95.91;100242.78;6314806;28;20044;-78
2021/07/31 02:00:59;;;;;;;3.15;1.95;;;;;;;16.16;95.14;100247.34;6314294;28;20048;-78
2021/07/31 02:04:00;;;;;;;8.23;1.63;;;;;;;16.13;94.07;100247.63;6312263;28;20052;-78
2021/07/31 02:07:03;;;;;;;6.68;2.08;;;;;;;16.10;93.93;100242.59;6314107;28;20055;-78
2021/07/31 02:10:06;;;;;;;4.13;1.70;;;;;;;16.09;94.90;100237.41;6337505;22;20053;-84
2021/07/31 02:13:07;;;;;;;4.50;1.73;;;;;;;16.07;93.89;100231.38;6234452;28;20433;-82
2021/07/31 02:16:09;;;;;;;7.63;1.50;;;;;;;16.09;94.62;100229.47;6234531;28;20053;-83
2021/07/31 02:19:10;;;;;;;2.85;1.60;;;;;;;16.15;94.18;100226.28;6224868;28;20061;-82
2021/07/31 02:22:13;;;;;;;5.85;1.85;;;;;;;16.15;93.23;100216.53;6265112;28;20056;-82
2021/07/31 02:25:14;;;;;;;10.95;1.98;;;;;;;16.17;94.13;100213.75;6271427;28;20056;-82
2021/07/31 02:28:15;;;;;;;8.43;1.98;;;;;;;16.19;94.12;100214.44;6271882;28;20527;-82
2021/07/31 02:31:17;;;;;;;4.13;1.77;;;;;;;16.15;93.74;100207.72;6272209;28;20056;-82
2021/07/31 02:34:18;;;;;;;3.78;1.65;;;;;;;16.18;93.27;100210.13;6271656;28;20045;-82
2021/07/31 02:37:21;;;;;;;6.43;2.30;;;;;;;16.13;91.03;100209.69;6271661;28;20064;-83
2021/07/31 02:40:22;;;;;;;6.90;2.13;;;;;;;16.15;90.72;100208.56;6271199;28;20060;-82
2021/07/31 02:43:23;;;;;;;6.30;1.55;;;;;;;16.18;90.46;100210.13;6271708;28;20049;-83
2021/07/31 02:46:25;;;;;;;6.97;1.45;;;;;;;16.18;89.31;100204.81;6271158;28;20060;-82
2021/07/31 02:49:26;;;;;;;8.63;1.60;;;;;;;16.16;87.88;100199.63;6272060;28;20607;-83
2021/07/31 02:52:29;;;;;;;4.45;1.40;;;;;;;16.19;87.59;100198.53;6271028;28;20045;-83
2021/07/31 02:55:31;;;;;;;9.73;2.10;;;;;;;16.10;87.79;100197.50;6270892;28;20052;-83
2021/07/31 02:58:33;;;;;;;14.65;2.22;;;;;;;16.04;86.96;100195.41;6271169;28;20420;-82
2021/07/31 03:01:34;;;;;;;4.00;1.63;;;;;;;16.07;86.63;100202.22;6271140;28;20049;-83
2021/07/31 03:04:36;;;;;;;6.70;1.60;;;;;;;16.04;87.07;100203.34;6271889;28;20389;-82
2021/07/31 03:07:38;;;;;;;11.45;1.83;;;;;;;16.02;85.92;100193.84;6271835;28;20041;-83
2021/07/31 03:10:40;;;;;;;6.68;1.50;;;;;;;16.06;85.63;100190.78;6271427;28;20060;-82
2021/07/31 03:13:41;;;;;;;3.50;1.40;;;;;;;15.97;83.77;100184.47;6271442;28;20052;-81
2021/07/31 03:16:42;;;;;;;4.43;1.40;;;;;;;15.95;84.31;100178.47;6275181;28;20048;-81
2021/07/31 03:19:44;;;;;;;5.03;1.40;;;;;;;15.92;84.37;100178.72;6275045;28;20067;-82
2021/07/31 03:22:47;;;;;;;7.22;2.10;;;;;;;15.96;83.48;100176.66;6275133;28;20131;-82
2021/07/31 03:25:49;;;;;;;5.82;1.45;;;;;;;15.97;82.85;100173.03;6274709;28;20140;-82
2021/07/31 03:28:50;;;;;;;4.70;1.45;;;;;;;15.95;82.87;100173.16;6274951;28;20053;-81
2021/07/31 03:31:52;;;;;;;4.82;1.20;;;;;;;15.92;83.80;100172.56;6274596;28;20053;-81
2021/07/31 03:34:53;;;;;;;8.07;1.83;;;;;;;15.91;83.54;100171.75;6274815;28;20183;-82
2021/07/31 03:37:56;;;;;;;6.85;1.42;;;;;;;15.86;84.28;100183.72;6274694;28;20049;-82
2021/07/31 03:40:57;;;;;;;7.50;1.30;;;;;;;15.87;83.16;100169.47;6274508;28;20420;-82
2021/07/31 03:43:58;;;;;;;3.35;1.10;;;;;;;15.85;83.30;100166.09;6274578;28;20048;-82
2021/07/31 03:46:59;;;;;;;5.45;1.60;;;;;;;15.89;82.78;100176.31;6274537;28;20052;-81
2021/07/31 03:50:01;;;;;;;6.25;1.45;;;;;;;15.81;83.09;100172.66;6274528;28;20053;-81
2021/07/31 03:53:05;;;;;;;5.68;1.83;;;;;;;15.79;82.85;100169.28;6274724;28;20048;-82
2021/07/31 03:56:08;;;;;;;5.63;1.75;;;;;;;15.76;83.38;100172.19;6273229;28;20056;-82
2021/07/31 03:59:09;;;;;;;6.72;1.42;;;;;;;15.82;83.17;100177.81;6273660;28;20049;-81
2021/07/31 04:02:11;;;;;;;9.23;2.53;;;;;;;15.82;82.45;100171.69;6274175;28;20053;-82
2021/07/31 04:05:12;;;;;;;4.15;1.38;;;;;;;15.83;82.89;100171.53;6267779;28;20056;-80
2021/07/31 04:08:15;;;;;;;4.13;1.30;;;;;;;15.80;82.22;100174.44;6269340;28;20056;-82
2021/07/31 04:11:16;;;;;;;7.97;1.65;;;;;;;15.83;82.48;100160.09;6261735;28;20053;-81
2021/07/31 04:14:17;;;;;;;5.72;1.80;;;;;;;15.82;82.75;100166.38;6258804;28;20044;-82
2021/07/31 04:17:19;;;;;;;9.50;1.77;;;;;;;15.82;82.50;100175.16;6261340;28;20052;-82
2021/07/31 04:20:20;;;;;;;5.38;1.52;;;;;;;15.82;83.18;100164.56;6259474;28;20417;-82
2021/07/31 04:23:23;;;;;;;5.57;1.40;;;;;;;15.84;82.93;100175.88;6260264;28;20405;-81
2021/07/31 04:26:26;;;;;;;4.47;1.15;;;;;;;15.85;82.46;100166.97;6259804;28;20615;-83
2021/07/31 04:29:28;;;;;;;6.38;1.58;;;;;;;15.83;83.00;100168.91;6259564;28;20056;-81
2021/07/31 04:32:29;;;;;;;5.97;1.67;;;;;;;15.80;82.21;100153.25;6258791;28;20045;-81
2021/07/31 04:35:30;;;;;;;6.65;1.45;;;;;;;15.88;81.80;100155.25;6260659;28;20052;-81
2021/07/31 04:38:33;;;;;;;11.25;2.45;;;;;;;15.86;81.18;100151.91;6256570;28;20044;-82
2021/07/31 04:41:37;;;;;;;5.45;1.58;;;;;;;15.90;82.16;100155.97;6262552;28;20045;-82
2021/07/31 04:44:38;;;;;;;8.52;1.10;;;;;;;16.00;80.50;100156.03;6261712;28;20060;-82
2021/07/31 04:47:41;;;;;;;10.65;1.75;;;;;;;16.05;81.12;100145.88;6262294;28;20056;-82
2021/07/31 04:50:42;;;;;;;4.55;1.27;;;;;;;16.12;82.63;100141.72;6262369;28;20049;-81
2021/07/31 04:53:45;;;;;;;6.63;1.73;;;;;;;16.09;82.48;100144.66;6260456;28;20037;-82
2021/07/31 04:56:47;;;;;;;4.38;1.50;;;;;;;16.15;82.66;100152.88;6262393;28;20045;-82
2021/07/31 04:59:48;;;;;;;8.32;1.42;;;;;;;16.15;81.35;100144.94;6260353;28;20056;-82
2021/07/31 05:02:50;;;;;;;5.82;1.15;;;;;;;16.15;81.30;100139.63;6258134;28;20493;-81
2021/07/31 05:05:51;;;;;;;3.10;1.50;;;;;;;16.16;81.70;100146.59;6260410;28;20045;-80
2021/07/31 05:08:54;;;;;;;4.22;1.40;;;;;;;16.19;81.02;100145.53;6266697;28;20045;-80
2021/07/31 05:11:55;;;;;;;10.60;1.52;;;;;;;16.22;81.18;100137.31;6273100;28;20083;-82
2021/07/31 05:14:56;;;;;;;6.90;1.45;;;;;;;16.21;80.96;100139.13;6273228;28;20045;-80
2021/07/31 05:17:58;;;;;;;8.10;1.40;;;;;;;16.36;81.33;100144.06;6272561;28;20056;-80
2021/07/31 05:20:59;;;;;;;8.50;1.88;;;;;;;16.34;81.70;100140.69;6272686;28;20145;-81
2021/07/31 05:24:02;;;;;;;4.60;1.30;;;;;;;16.43;81.09;100138.06;6272205;28;20049;-80
2021/07/31 05:27:04;;;;;;;7.75;1.60;;;;;;;16.41;80.52;100133.88;6274846;28;20053;-81
2021/07/31 05:30:06;;;;;;;6.50;1.58;;;;;;;16.36;80.11;100136.13;6276892;28;20059;-81
2021/07/31 05:33:08;;;;;;;5.85;1.73;;;;;;;16.38;79.76;100132.34;6270977;28;20421;-81
2021/07/31 05:36:10;;;;;;;8.73;1.92;;;;;;;16.49;80.27;100120.81;6250906;28;20056;-81
2021/07/31 05:39:14;;;;;;;9.63;2.22;;;;;;;16.43;80.67;100130.13;6247558;28;20046;-80
2021/07/31 05:42:15;;;;;;;5.55;1.58;;;;;;;16.54;79.83;100120.41;6248069;28;20543;-82
2021/07/31 05:45:17;;;;;;;3.58;1.40;;;;;;;16.54;79.43;100123.88;6248196;28;20269;-82
2021/07/31 05:48:18;;;;;;;6.35;1.55;;;;;;;16.61;79.44;100124.16;6248123;28;20053;-81
2021/07/31 05:51:19;;;;;;;8.20;1.77;;;;;;;16.66;78.55;100125.44;6249544;28;20056;-82
2021/07/31 05:54:22;;;;;;;11.80;1.92;;;;;;;16.75;80.03;100121.16;6249401;28;20049;-80
2021/07/31 05:57:24;;;;;;;5.30;1.70;;;;;;;16.71;80.26;100140.94;6248262;28;20052;-81
2021/07/31 06:00:25;;;;;;;8.30;1.90;;;;;;;16.66;79.28;100124.59;6248358;28;20057;-81
2021/07/31 06:03:27;;;;;;;3.97;1.48;;;;;;;16.68;78.98;100141.25;6252305;28;20417;-79
2021/07/31 06:06:28;;;;;;;10.60;2.13;;;;;;;16.71;78.75;100138.28;6254416;28;20045;-81
2021/07/31 06:09:31;;;;;;;4.75;1.65;;;;;;;16.64;79.75;100129.22;6247482;28;20053;-81
2021/07/31 06:12:32;;;;;;;9.77;2.17;;;;;;;16.67;80.31;100134.25;6248981;28;20050;-82
2021/07/31 06:15:34;;;;;;;7.35;1.98;;;;;;;16.71;79.27;100133.84;6258739;28;20049;-81
2021/07/31 06:18:37;;;;;;;5.18;1.73;;;;;;;16.80;79.55;100131.34;6269348;28;20536;-81
2021/07/31 06:21:38;;;;;;;4.70;1.73;;;;;;;16.89;78.68;100139.34;6273076;28;20055;-81
2021/07/31 06:24:41;;;;;;;3.30;1.63;;;;;;;17.02;78.32;100120.50;6259389;28;20049;-82
2021/07/31 06:27:42;;;;;;;10.27;1.77;;;;;;;17.09;76.93;100129.59;6258825;28;20052;-80
2021/07/31 06:30:44;;;;;;;8.75;2.13;;;;;;;17.19;77.51;100132.25;6249941;28;20049;-80
2021/07/31 06:33:45;;;;;;;7.10;2.40;;;;;;;17.32;76.25;100137.28;6251179;28;20187;-82
2021/07/31 06:36:47;;;;;;;10.90;1.83;;;;;;;17.35;75.73;100127.22;6248681;28;20416;-80
2021/07/31 06:39:49;;;;;;;5.07;1.60;;;;;;;17.39;75.76;100143.69;6251746;28;20049;-82
2021/07/31 06:42:51;;;;;;;5.32;1.60;;;;;;;17.38;75.06;100150.00;6248686;28;20050;-79
2021/07/31 06:45:53;;;;;;;11.15;2.08;;;;;;;17.32;76.08;100145.25;6249923;28;20496;-82
2021/07/31 06:48:54;;;;;;;6.93;1.83;;;;;;;17.34;75.96;100132.66;6251286;28;20049;-81
2021/07/31 06:51:55;;;;;;;8.38;1.85;;;;;;;17.36;74.73;100134.22;6255325;28;20552;-82
2021/07/31 06:54:58;;;;;;;4.63;1.58;;;;;;;17.29;75.37;100138.41;6255124;28;20041;-81
2021/07/31 06:57:59;;;;;;;5.38;1.83;;;;;;;17.22;76.43;100140.78;6254234;28;20064;-81
2021/07/31 07:01:01;;;;;;;3.63;1.63;;;;;;;17.21;74.63;100130.28;6253946;28;20049;-80
2021/07/31 07:04:02;;;;;;;8.38;2.28;;;;;;;17.16;74.44;100141.31;6252909;28;20132;-81
2021/07/31 07:07:04;;;;;;;4.90;1.73;;;;;;;17.09;74.74;100131.41;6253368;28;20056;-80
2021/07/31 07:10:08;;;;;;;8.73;1.65;;;;;;;17.03;75.18;100139.91;6253126;28;20058;-81
2021/07/31 07:13:10;;;;;;;5.20;2.20;;;;;;;17.03;76.19;100145.22;6252883;28;20053;-81
2021/07/31 07:16:11;;;;;;;4.97;1.98;;;;;;;16.99;76.00;100140.22;6252254;28;20061;-81
2021/07/31 07:19:12;;;;;;;7.22;2.00;;;;;;;17.08;75.23;100138.53;6251790;28;20053;-81
2021/07/31 07:22:14;;;;;;;7.38;1.73;;;;;;;17.05;75.25;100140.63;6251917;28;20053;-81
2021/07/31 07:25:16;;;;;;;10.27;2.00;;;;;;;17.02;75.41;100149.69;6251214;28;20417;-82
2021/07/31 07:28:18;;;;;;;7.13;2.10;;;;;;;17.00;76.27;100149.00;6250740;28;20053;-82
2021/07/31 07:31:19;;;;;;;7.82;1.95;;;;;;;16.94;76.63;100160.16;6251313;28;20540;-82
2021/07/31 07:34:21;;;;;;;6.43;1.88;;;;;;;16.93;76.80;100147.88;6250961;28;20041;-81
2021/07/31 07:37:22;;;;;;;5.45;2.38;;;;;;;16.95;76.02;100178.63;6251180;28;20057;-81
2021/07/31 07:40:25;;;;;;;7.82;2.00;;;;;;;16.95;76.09;100164.50;6250970;28;20050;-81
2021/07/31 07:43:26;;;;;;;5.25;1.75;;;;;;;16.94;76.37;100163.69;6251232;28;20049;-81
2021/07/31 07:46:28;;;;;;;9.85;1.60;;;;;;;16.93;76.56;100166.44;6250901;28;20049;-82
2021/07/31 07:49:29;;;;;;;7.38;2.13;;;;;;;16.88;76.98;100166.84;6251106;28;20049;-80
2021/07/31 07:52:31;;;;;;;5.60;2.25;;;;;;;16.84;77.94;100173.41;6250555;28;20060;-83
2021/07/31 07:55:33;;;;;;;10.68;2.15;;;;;;;16.89;77.49;100170.34;6250757;28;20061;-77
2021/07/31 07:58:35;;;;;;;4.60;2.03;;;;;;;16.96;77.85;100169.69;6251644;28;20045;-81
2021/07/31 08:01:37;;;;;;;5.47;2.15;;;;;;;16.91;77.80;100171.06;6265130;28;20131;-80
2021/07/31 08:04:38;;;;;;;4.22;1.90;;;;;;;17.02;78.65;100162.97;6262620;28;20048;-82
2021/07/31 08:07:43;;;;;;;7.25;1.98;;;;;;;17.16;78.07;100157.25;6251349;28;20052;-81
2021/07/31 08:10:46;;;;;;;6.38;1.90;;;;;;;17.39;76.77;100165.78;6266005;28;20045;-73
2021/07/31 08:13:47;;;;;;;8.10;1.98;;;;;;;17.64;75.50;100169.72;6292320;22;20048;-73
2021/07/31 08:16:49;;;;;;;5.13;1.90;;;;;;;17.73;74.69;100149.41;6280644;28;20056;-78
2021/07/31 08:19:51;;;;;;;7.75;2.13;;;;;;;17.79;74.20;100164.81;6273833;28;20056;-78
2021/07/31 08:22:52;;;;;;;6.60;1.70;;;;;;;17.78;73.42;100173.78;6257172;28;20049;-73
2021/07/31 08:25:55;;;;;;;9.77;1.70;;;;;;;17.68;73.23;100179.06;6245971;28;20045;-74
2021/07/31 08:28:56;;;;;;;4.43;1.80;;;;;;;17.65;73.78;100176.69;6247798;28;20073;-74
2021/07/31 08:31:57;;;;;;;8.98;1.95;;;;;;;17.63;73.45;100175.19;6247832;28;20053;-75
2021/07/31 08:35:00;;;;;;;8.52;2.00;;;;;;;17.69;73.80;100158.66;6248290;28;20532;-78
2021/07/31 08:38:01;;;;;;;3.63;1.63;;;;;;;17.67;73.62;100169.44;6248030;28;20053;-75
2021/07/31 08:41:05;;;;;;;11.70;1.88;;;;;;;17.71;74.63;100167.31;6248200;28;20056;-75
2021/07/31 08:44:07;;;;;;;3.88;1.30;;;;;;;17.81;74.22;100184.13;6248109;28;20398;-74
2021/07/31 08:47:09;;;;;;;4.57;1.65;;;;;;;17.84;75.18;100167.88;6247856;28;20049;-76
2021/07/31 08:50:12;;;;;;;7.10;1.35;;;;;;;17.90;74.01;100188.59;6248124;28;20050;-76
2021/07/31 08:53:13;;;;;;;6.53;1.55;;;;;;;17.85;73.43;100176.69;6246695;28;20049;-76
2021/07/31 08:56:16;;;;;;;6.25;1.73;;;;;;;17.95;74.59;100172.22;6247905;28;20100;-76
2021/07/31 08:59:18;;;;;;;5.38;1.60;;;;;;;17.97;74.08;100163.09;6248522;28;20053;-79
2021/07/31 09:02:19;;;;;;;5.10;2.25;;;;;;;17.86;72.69;100176.56;6248342;28;20053;-76
2021/07/31 09:05:32;;;;;;;3.67;1.45;;;;;;;17.75;73.46;100182.84;6247662;28;20050;-78
2021/07/31 09:08:52;;;;;;;8.73;1.77;;;;;;;17.75;74.09;100197.97;6247807;28;20054;-76
2021/07/31 09:11:57;;;;;;;3.55;1.50;;;;;;;17.75;73.38;100204.13;6254572;28;20060;-76
2021/07/31 09:14:59;;;;;;;6.13;1.95;;;;;;;17.85;75.22;100196.16;6271681;28;20037;-77
2021/07/31 09:18:27;;;;;;;4.75;1.83;;;;;;;17.86;73.15;100203.16;6282905;28;20049;-74
2021/07/31 09:21:30;;;;;;;3.88;2.15;;;;;;;17.80;73.97;100205.53;6247444;28;20065;-77
2021/07/31 09:24:33;;;;;;;4.68;2.13;;;;;;;17.90;72.95;100193.91;6253836;28;20055;-75
2021/07/31 09:27:35;;;;;;;6.47;1.70;;;;;;;17.89;74.33;100194.88;6278076;28;20045;-76
2021/07/31 09:30:49;;;;;;;12.25;1.65;;;;;;;17.93;71.75;100187.44;6275900;28;20041;-76
2021/07/31 09:33:51;;;;;;;7.60;1.60;;;;;;;17.80;72.80;100190.41;6283796;28;20045;-75
2021/07/31 09:37:07;;;;;;;6.15;1.88;;;;;;;17.78;73.03;100211.00;6296376;28;20048;-75
2021/07/31 09:40:13;;;;;;;11.00;1.73;;;;;;;17.69;73.95;100202.00;6286855;28;20496;-75
2021/07/31 09:43:17;;;;;;;7.88;2.10;;;;;;;17.68;74.69;100204.81;6279520;28;20056;-76
2021/07/31 09:46:32;;;;;;;10.60;2.20;;;;;;;17.43;77.95;100214.16;6274753;28;20045;-75
2021/07/31 09:49:40;;;;;;;5.13;2.25;;;;;;;17.10;82.36;100213.56;6296289;28;20443;-75
2021/07/31 09:52:41;;;;;;;5.50;1.60;;;;;;;16.95;82.94;100229.06;6296337;28;20064;-76
2021/07/31 09:55:45;;;;;;;8.45;2.05;;;;;;;16.90;84.10;100220.66;6296106;28;20051;-77
2021/07/31 09:58:48;;;;;;;6.78;2.28;;;;;;;16.88;83.81;100219.09;6296407;28;20058;-75
2021/07/31 10:01:50;;;;;;;4.90;1.63;;;;;;;16.85;84.74;100214.94;6296141;28;20059;-75
2021/07/31 10:04:52;;;;;;;6.88;2.30;;;;;;;16.83;86.85;100216.03;6296219;28;20052;-75
2021/07/31 10:07:54;;;;;;;5.55;2.15;;;;;;;16.81;86.31;100221.47;6295692;28;20427;-75
2021/07/31 10:10:55;;;;;;;3.30;1.98;;;;;;;16.69;87.87;100220.69;6296368;28;20052;-74
2021/07/31 10:14:00;;;;;;;7.13;1.80;;;;;;;16.66;88.62;100226.25;6295750;28;20045;-75
2021/07/31 10:17:01;;;;;;;6.30;2.22;;;;;;;16.69;88.80;100226.00;6295951;28;20056;-75
2021/07/31 10:20:03;;;;;;;8.73;1.75;;;;;;;16.83;85.55;100231.94;6296091;28;20055;-76
2021/07/31 10:23:07;;;;;;;6.80;1.73;;;;;;;16.94;84.92;100235.34;6296637;28;20059;-76
2021/07/31 10:26:11;;;;;;;5.72;2.15;;;;;;;17.09;85.73;100238.44;6300815;28;20082;-74
2021/07/31 10:29:43;;;;;;;2.33;1.63;;;;;;;17.21;85.99;100234.72;6300623;28;20131;-77
2021/07/31 10:32:45;;;;;;;8.75;1.88;;;;;;;17.36;86.70;100229.84;6293662;28;20052;-74
2021/07/31 10:35:46;;;;;;;2.63;1.40;;;;;;;17.48;85.68;100249.13;6301084;28;20503;-77
2021/07/31 10:38:48;;;;;;;6.60;2.00;;;;;;;17.69;83.81;100244.53;6301311;28;20618;-79
2021/07/31 10:41:56;;;;;;;5.80;2.50;;;;;;;17.83;83.71;100245.97;6300982;28;20053;-76
2021/07/31 10:45:22;;;;;;;5.72;1.80;;;;;;;17.96;83.29;100241.19;6301777;28;20053;-82
2021/07/31 10:48:35;;;;;;;3.60;1.80;;;;;;;17.94;83.50;100247.63;6300055;28;20427;-78
2021/07/31 10:51:41;;;;;;;7.25;2.05;;;;;;;17.87;83.24;100243.88;6303891;28;20068;-78
2021/07/31 10:54:59;;;;;;;4.20;1.90;;;;;;;17.48;87.16;100265.06;6300871;28;20099;-76
2021/07/31 10:58:07;;;;;;;6.35;1.98;;;;;;;17.20;88.90;100264.03;6300626;28;20127;-75
2021/07/31 11:01:23;;;;;;;3.53;1.98;;;;;;;17.13;90.61;100271.72;6300281;28;20718;-74
2021/07/31 11:04:59;;;;;;;8.15;2.10;;;;;;;17.15;90.30;100255.66;6300055;28;20045;-77
2021/07/31 11:08:03;;;;;;;7.20;2.20;;;;;;;17.28;90.95;100253.59;6299805;28;20056;-76
2021/07/31 11:11:24;;;;;;;4.38;2.10;;;;;;;17.42;88.25;100265.63;6300231;28;20568;-74
2021/07/31 11:14:58;;;;;;;4.20;2.00;;;;;;;17.67;87.13;100264.25;6301179;28;20052;-75
2021/07/31 11:18:02;;;;;;;5.53;1.95;;;;;;;17.92;86.28;100276.19;6299724;28;20049;-76
2021/07/31 11:21:09;;;;;;;5.45;2.10;;;;;;;18.22;86.56;100276.00;6299527;28;20055;-77
2021/07/31 11:24:12;;;;;;;3.50;1.92;;;;;;;18.33;85.48;100277.66;6299672;28;20460;-75
2021/07/31 11:27:14;;;;;;;6.20;2.08;;;;;;;18.39;84.15;100278.91;6299725;28;20131;-77
2021/07/31 11:30:15;;;;;;;6.35;1.77;;;;;;;18.62;84.45;100279.41;6301667;28;20052;-79
2021/07/31 11:33:23;;;;;;;5.35;2.05;;;;;;;19.01;82.43;100286.28;6299603;28;20056;-76
2021/07/31 11:36:25;;;;;;;6.03;1.90;;;;;;;19.09;81.26;100290.88;6298184;28;20051;-76
2021/07/31 11:39:26;;;;;;;3.60;1.63;;;;;;;18.91;80.05;100292.66;6301314;28;20052;-82
2021/07/31 11:42:31;;;;;;;4.55;1.85;;;;;;;18.78;80.76;100273.50;6301593;28;20059;-80
2021/07/31 11:45:32;;;;;;;4.05;1.60;;;;;;;18.96;81.47;100277.91;6300531;28;20091;-79
2021/07/31 11:48:35;;;;;;;3.30;1.60;;;;;;;19.04;79.39;100281.66;6299886;28;20053;-77
2021/07/31 11:51:44;;;;;;;5.22;1.88;;;;;;;18.88;78.10;100290.28;6299652;28;20052;-75
2021/07/31 11:54:47;;;;;;;9.20;1.95;;;;;;;18.96;78.97;100285.91;6299056;28;20052;-76
2021/07/31 11:57:49;;;;;;;9.77;1.73;;;;;;;19.07;76.43;100273.34;6298778;28;20519;-75
2021/07/31 12:00:51;;;;;;;2.40;1.70;;;;;;;19.01;76.57;100272.13;6299582;28;20415;-82
2021/07/31 12:03:55;;;;;;;6.30;1.92;;;;;;;19.05;77.40;100280.69;6302322;28;20511;-82
2021/07/31 12:07:08;;;;;;;3.78;1.58;;;;;;;18.96;75.68;100290.38;6300336;28;20049;-82
2021/07/31 12:10:13;;;;;;;4.65;1.73;;;;;;;18.90;76.01;100288.31;6293840;28;20052;-75
2021/07/31 12:13:14;;;;;;;3.05;1.65;;;;;;;19.05;75.49;100296.66;6273540;28;20464;-75
2021/07/31 12:16:26;;;;;;;8.98;1.67;;;;;;;19.01;76.32;100288.13;6273873;28;20041;-76
2021/07/31 12:19:39;;;;;;;8.32;1.67;;;;;;;18.92;75.71;100289.00;6272942;28;20052;-75
2021/07/31 12:22:52;;;;;;;6.03;1.63;;;;;;;18.86;75.42;100295.75;6271626;28;20055;-76
2021/07/31 12:25:58;;;;;;;5.22;1.20;;;;;;;18.75;74.23;100326.03;6273642;28;20395;-78
2021/07/31 12:28:59;;;;;;;1.65;1.15;;;;;;;18.57;73.93;100310.94;6274428;28;20052;-75
2021/07/31 12:32:21;;;;;;;2.45;0.98;;;;;;;18.52;75.06;100308.69;6274418;28;20049;-79
2021/07/31 12:35:35;;;;;;;4.55;1.23;;;;;;;18.63;75.13;100316.53;6277434;28;20041;-78
2021/07/31 12:38:36;;;;;;;2.25;1.30;;;;;;;18.74;76.48;100312.88;6273276;28;20124;-76
2021/07/31 12:41:39;;;;;;;1.65;1.30;;;;;;;18.67;75.45;100327.75;6274144;28;20045;-75
2021/07/31 12:44:40;;;;;;;4.43;1.83;;;;;;;18.44;76.92;100333.38;6272896;28;20041;-75
2021/07/31 12:47:42;;;;;;;6.25;1.70;;;;;;;18.27;79.27;100322.63;6272642;28;20502;-77
2021/07/31 12:50:45;;;;;;;4.22;1.52;;;;;;;18.28;80.50;100324.31;6272142;28;20128;-77
2021/07/31 12:53:47;;;;;;;3.85;2.17;;;;;;;18.00;85.74;100337.47;6270907;28;20053;-75
2021/07/31 12:56:48;;;;;;;9.07;2.65;;;;;;;17.77;89.51;100349.34;6272103;28;20041;-73
2021/07/31 12:59:49;;;;;;;4.43;2.08;;;;;;;17.47;93.39;100335.97;6272664;28;20059;-74
2021/07/31 13:02:51;;;;;;;2.47;2.13;;;;;;;17.17;96.97;100349.31;6271544;28;20471;-75
2021/07/31 13:05:53;;;;;;;5.93;2.40;;;;;;;17.12;98.84;100354.16;6269909;28;20140;-76
2021/07/31 13:08:55;;;;;;;5.57;2.53;;;;;;;17.21;94.74;100350.69;6272125;28;20052;-75
2021/07/31 13:11:56;;;;;;;9.45;3.03;;;;;;;17.55;95.36;100345.91;6272177;28;20045;-76
2021/07/31 13:14:57;;;;;;;4.88;2.53;;;;;;;17.91;90.01;100362.25;6272368;28;20094;-75
2021/07/31 13:17:59;;;;;;;5.13;2.35;;;;;;;18.15;87.95;100346.69;6272715;28;20051;-79
2021/07/31 13:21:01;;;;;;;3.63;1.67;;;;;;;18.38;86.88;100346.41;6272351;28;20057;-76
2021/07/31 13:24:03;;;;;;;4.03;2.40;;;;;;;18.85;84.24;100347.34;6275273;28;20053;-75
2021/07/31 13:27:05;;;;;;;3.47;2.20;;;;;;;18.94;81.10;100342.94;6273321;28;20128;-76
2021/07/31 13:30:07;;;;;;;5.90;1.88;;;;;;;18.99;80.59;100336.22;6272061;28;20048;-75
2021/07/31 13:33:09;;;;;;;5.07;2.13;;;;;;;19.45;79.01;100338.94;6271979;28;20045;-76
2021/07/31 13:36:11;;;;;;;8.07;2.00;;;;;;;19.77;77.24;100352.66;6276590;28;20423;-79
2021/07/31 13:39:15;;;;;;;9.20;2.22;;;;;;;20.12;75.68;100345.66;6272163;28;20049;-76
2021/07/31 13:42:16;;;;;;;2.10;1.60;;;;;;;20.16;74.55;100336.31;6272851;28;20056;-77
2021/07/31 13:45:18;;;;;;;4.97;1.80;;;;;;;20.13;74.05;100336.66;6272530;28;20048;-78
2021/07/31 13:48:20;;;;;;;2.83;1.85;;;;;;;20.17;74.51;100342.53;6271541;28;20044;-77
2021/07/31 13:51:22;;;;;;;2.10;1.50;;;;;;;19.93;74.25;100345.78;6271440;28;20135;-76
2021/07/31 13:54:23;;;;;;;4.28;1.63;;;;;;;19.82;77.04;100346.03;6271570;28;20052;-77
2021/07/31 13:57:25;;;;;;;3.33;1.65;;;;;;;19.79;73.28;100349.81;6271659;28;20045;-76
2021/07/31 14:00:27;;;;;;;6.35;1.60;;;;;;;19.52;74.41;100351.50;6273862;28;20052;-77
2021/07/31 14:03:28;;;;;;;2.53;1.52;;;;;;;19.37;75.71;100349.50;6282038;28;20051;-75
2021/07/31 14:06:31;;;;;;;7.05;1.55;;;;;;;19.24;76.82;100350.66;6282291;28;20044;-81
2021/07/31 14:09:32;;;;;;;3.17;1.70;;;;;;;19.19;76.83;100350.28;6275918;28;20052;-78
2021/07/31 14:12:33;;;;;;;2.85;1.70;;;;;;;19.57;75.75;100355.53;6271686;28;20071;-76